Upstream stations:
Downstream station:
SHEF ID: OLBO2 North Canadian River blw Lk Over
STATION TYPE:
Regulating: Stage = 24.00, Flow = 9206
PRECIP STAGE RIV-FLOW WTR-TEMP DIS-OXY CONDUCT BAT-LOAD
in ft cfs F mg/l umho/cm volt
Ccp-Rev Ccp-Rev Ccp-Rev Ccp-Rev Ccp-Rev Ccp-Rev Ccp-Rev
(US/Central)
03/04 00:00 ---- 3.79 15 46.11 10.25 ---- ----
03/04 01:00 ---- 3.79 15 45.93 10.24 ---- ----
03/04 02:00 ---- 3.79 15 45.75 10.27 ---- ----
03/04 03:00 ---- 3.79 15 45.61 10.27 ---- ----
03/04 04:00 ---- 3.79 15 45.43 10.25 ---- ----
03/04 05:00 ---- 3.78 14 45.34 10.23 ---- ----
03/04 06:00 ---- 3.77 14 45.27 10.23 ---- ----
03/04 07:00 ---- 3.78 14 45.23 10.18 ---- ----
03/04 08:00 ---- 3.78 14 45.45 10.38 ---- ----
03/04 09:00 ---- 3.78 14 46.09 10.90 ---- ----
03/04 10:00 ---- 3.77 14 47.35 12.02 ---- ----
03/04 11:00 ---- 3.77 14 49.23 12.94 ---- ----
03/04 12:00 ---- 3.75 13 52.09 13.59 ---- ----
03/04 13:00 ---- 3.74 12 54.05 13.81 ---- ----
03/04 14:00 ---- 3.72 11 55.45 13.77 ---- ----
03/04 15:00 ---- 3.74 12 55.63 13.51 ---- ----
03/04 16:00 ---- 3.76 13 56.07 13.48 ---- ----
03/04 17:00 ---- 3.75 13 55.69 12.82 ---- ----
03/04 18:00 ---- 3.78 14 54.95 11.94 ---- ----
03/04 19:00 ---- 3.71 11 53.98 10.99 ---- ----
03/04 20:00 ---- 3.76 13 52.90 10.35 ---- ----
03/04 21:00 ---- 3.76 13 52.11 9.89 ---- ----
03/04 22:00 ---- 3.77 14 51.55 9.63 ---- ----
03/04 23:00 ---- 3.77 14 51.15 9.48 ---- ----